Search for airport 
image banner adimage banner adimage banner ad
image banner ad

KSFO - San Francisco Intl

Located in San Francisco, United States

ICAO - SFO, IATA - SFO

Data provided by Airmate  

General information

Coordinates: N37°37'8" W122°22'32"
Elevation is 13 feet MSL.
Magnetic variation is 14° East
View others Airports in California

Operational data

Special qualification required
Current time UTC:
Current local time:
Weather
METAR: KSFO 141156Z 29007KT 10SM FEW005 BKN013 OVC017 19/16 A3000 RMK AO2 SLP159 T01890156 10194 20183 53003 $
TAF: KSFO 141201Z 1412/1518 VRB04KT P6SM OVC014 TEMPO 1412/1414 5SM BR BKN007 OVC012 FM141600 25006KT P6SM FEW012 SCT014 FM142000 27017G25KT P6SM FEW010 FM150300 27015KT P6SM FEW012 FM150900 28013KT P6SM SCT010 FM151600 29014KT P6SM FEW010
View NOTAMs / SUP AIP / TFR affecting this airport [VIEW]
Communications frequencies: [VIEW]

Runways:

RWY identifierQFULength (ft)Width (ft)SurfaceLDA (ft)
01R28°8650200ASPH8090
19L208°8650200ASPH8650
01L28°7650200ASPH7010
19R208°7650200ASPH7650
10R118°11381200ASPH10704
28L298°11381200ASPH10275
10L118°11870200ASPH11193
28R298°11870200ASPH11236

Airport contact information

Address: San Francisco United States

Satellite view of KSFO